createdAt,value
2023-05-01T00:02:54.382Z,102139.03
2023-05-01T00:06:01.915Z,102140.81
2023-05-01T00:09:07.105Z,102137.25
2023-05-01T00:12:09.873Z,102137.25
2023-05-01T00:15:13.976Z,102133.69
2023-05-01T00:18:17.344Z,102129.13
2023-05-01T00:21:20.281Z,102119.53
2023-05-01T00:24:23.028Z,102127.66
2023-05-01T00:27:25.737Z,102126.19
2023-05-01T00:30:29.882Z,102115.53
2023-05-01T00:33:32.669Z,102121.78
2023-05-01T00:36:35.506Z,102111.81
2023-05-01T00:39:38.317Z,102105.41
2023-05-01T00:42:41.093Z,102110.69
2023-05-01T00:45:47.080Z,102109.69
2023-05-01T00:48:50.117Z,102108.75
2023-05-01T00:51:54.114Z,102100.66
2023-05-01T00:54:57.933Z,102096.22
2023-05-01T00:58:02.196Z,102088.28
2023-05-01T01:01:08.908Z,102094.50
2023-05-01T01:04:12.070Z,102092.97
2023-05-01T01:07:22.003Z,102098.44
2023-05-01T01:10:31.251Z,102088.72
2023-05-01T01:13:40.665Z,102093.25
2023-05-01T01:16:52.953Z,102089.69
2023-05-01T01:20:15.937Z,102085.19
2023-05-01T01:23:44.045Z,102090.50
2023-05-01T01:27:14.486Z,102078.00
2023-05-01T01:30:36.307Z,102083.31
2023-05-01T01:34:01.587Z,102072.78
2023-05-01T01:37:12.776Z,102078.13
2023-05-01T01:40:20.036Z,102067.66
2023-05-01T01:43:25.269Z,102070.19
2023-05-01T01:46:29.074Z,102073.81
2023-05-01T01:49:35.187Z,102066.72
2023-05-01T01:52:41.696Z,102072.91
2023-05-01T01:55:46.519Z,102067.66
2023-05-01T01:58:52.250Z,102071.16
2023-05-01T02:01:57.633Z,102067.53
2023-05-01T02:05:02.731Z,102063.28
2023-05-01T02:08:06.371Z,102065.94
2023-05-01T02:11:09.952Z,102056.16
2023-05-01T02:14:14.281Z,102055.50
2023-05-01T02:17:20.090Z,102046.47
2023-05-01T02:20:24.443Z,102045.63
2023-05-01T02:23:28.955Z,102040.31
2023-05-01T02:26:36.358Z,102038.47
2023-05-01T02:29:39.458Z,102037.66
2023-05-01T02:32:42.584Z,102031.41
2023-05-01T02:35:47.934Z,102029.63
2023-05-01T02:38:52.989Z,102023.47
2023-05-01T02:41:58.426Z,102020.75
2023-05-01T02:45:04.471Z,102023.44
2023-05-01T02:48:13.771Z,102019.00
2023-05-01T02:51:22.026Z,102013.59
2023-05-01T02:54:24.991Z,102009.91
2023-05-01T02:57:28.037Z,102013.66
2023-05-01T03:00:30.991Z,102018.00
2023-05-01T03:03:33.983Z,102009.28
2023-05-01T03:06:39.014Z,102011.94
2023-05-01T03:09:41.880Z,102011.00
2023-05-01T03:12:44.596Z,102004.78
2023-05-01T03:15:47.626Z,102004.84
2023-05-01T03:18:50.334Z,101997.78
2023-05-01T03:21:55.131Z,101994.16
2023-05-01T03:24:57.877Z,101999.50
2023-05-01T03:28:00.634Z,101993.16
2023-05-01T03:31:03.590Z,101985.16
2023-05-01T03:34:07.796Z,101980.84
2023-05-01T03:37:11.951Z,101987.13
2023-05-01T03:40:15.147Z,101978.19
2023-05-01T03:43:36.814Z,101972.00
2023-05-01T03:46:45.438Z,101973.81
2023-05-01T03:49:55.386Z,101972.88
2023-05-01T03:52:59.647Z,101970.25
2023-05-01T03:56:04.516Z,101971.97
2023-05-01T03:59:07.671Z,101976.47
2023-05-01T04:02:10.730Z,101972.88
2023-05-01T04:05:14.472Z,101972.88
2023-05-01T04:08:23.220Z,101976.34
2023-05-01T04:11:26.142Z,101969.19
2023-05-01T04:14:29.100Z,101968.28
2023-05-01T04:17:32.613Z,101975.31
2023-05-01T04:20:35.765Z,101970.78
2023-05-01T04:23:39.868Z,101970.72
2023-05-01T04:26:42.989Z,101972.50
2023-05-01T04:29:46.241Z,101967.16
2023-05-01T04:32:49.062Z,101972.50
2023-05-01T04:35:52.145Z,101966.28
2023-05-01T04:38:56.402Z,101961.81
2023-05-01T04:41:59.348Z,101961.81
2023-05-01T04:45:04.244Z,101961.81
2023-05-01T04:48:10.745Z,101958.22
2023-05-01T04:51:13.526Z,101955.56
2023-05-01T04:54:17.692Z,101958.22
2023-05-01T04:57:21.819Z,101949.34
2023-05-01T05:00:26.254Z,101949.34
2023-05-01T05:03:32.643Z,101948.50
2023-05-01T05:06:35.903Z,101943.16
2023-05-01T05:09:40.919Z,101944.00
2023-05-01T05:12:43.697Z,101951.16
2023-05-01T05:15:46.433Z,101937.88
2023-05-01T05:18:49.725Z,101941.41
2023-05-01T05:21:53.071Z,101937.88
2023-05-01T05:24:59.998Z,101943.19
2023-05-01T05:28:02.804Z,101932.66
2023-05-01T05:31:05.626Z,101930.03
2023-05-01T05:34:08.813Z,101926.53
2023-05-01T05:37:12.518Z,101922.13
2023-05-01T05:40:25.488Z,101916.81
2023-05-01T05:43:31.116Z,101915.97
2023-05-01T05:46:34.047Z,101909.78
2023-05-01T05:49:36.827Z,101909.78
2023-05-01T05:52:39.676Z,101900.91
2023-05-01T05:55:45.422Z,101908.00
2023-05-01T05:58:48.224Z,101908.81
2023-05-01T06:01:51.006Z,101909.69
2023-05-01T06:04:53.736Z,101900.81
2023-05-01T06:07:56.660Z,101900.75
2023-05-01T06:11:00.740Z,101902.53
2023-05-01T06:14:03.567Z,101896.34
2023-05-01T06:17:06.956Z,101903.47
2023-05-01T06:20:11.603Z,101895.53
2023-05-01T06:23:15.481Z,101894.72
2023-05-01T06:26:28.112Z,101896.50
2023-05-01T06:29:31.040Z,101884.09
2023-05-01T06:32:33.874Z,101889.41
2023-05-01T06:35:37.313Z,101888.56
2023-05-01T06:38:41.465Z,101892.97
2023-05-01T06:41:47.623Z,101886.72
2023-05-01T06:44:51.248Z,101891.13
2023-05-01T06:47:54.452Z,101881.34
2023-05-01T06:50:57.593Z,101882.16
2023-05-01T06:54:00.428Z,101875.06
2023-05-01T06:57:04.696Z,101876.00
2023-05-01T07:00:08.574Z,101873.34
2023-05-01T07:03:11.803Z,101873.34
2023-05-01T07:06:14.655Z,101874.25
2023-05-01T07:09:17.474Z,101868.91
2023-05-01T07:12:22.567Z,101876.06
2023-05-01T07:15:25.294Z,101873.34
2023-05-01T07:18:28.096Z,101867.13
2023-05-01T07:21:32.148Z,101868.00
2023-05-01T07:24:34.894Z,101865.28
2023-05-01T07:27:38.989Z,101866.16
2023-05-01T07:30:41.937Z,101870.53
2023-05-01T07:33:44.712Z,101866.16
2023-05-01T07:36:47.571Z,101863.44
2023-05-01T07:39:50.510Z,101855.44
2023-05-01T07:42:54.800Z,101853.66
2023-05-01T07:45:58.846Z,101858.06
2023-05-01T07:49:01.842Z,101849.19
2023-05-01T07:52:05.311Z,101844.75
2023-05-01T07:55:09.756Z,101844.75
2023-05-01T07:58:13.866Z,101843.81
2023-05-01T08:01:16.682Z,101832.25
2023-05-01T08:04:21.576Z,101826.91
2023-05-01T08:07:24.697Z,101821.56
2023-05-01T08:10:28.751Z,101817.09
2023-05-01T08:13:33.035Z,101804.63
2023-05-01T08:16:36.078Z,101804.63
2023-05-01T08:19:38.849Z,101801.97
2023-05-01T08:22:41.573Z,101798.41
2023-05-01T08:25:46.721Z,101804.63
2023-05-01T08:28:50.866Z,101803.81
2023-05-01T08:31:53.814Z,101801.22
2023-05-01T08:34:56.639Z,101803.91
2023-05-01T08:37:59.371Z,101800.41
2023-05-01T08:41:03.399Z,101797.75
2023-05-01T08:44:09.652Z,101796.03
2023-05-01T08:47:16.261Z,101799.59
2023-05-01T08:50:19.408Z,101796.09
2023-05-01T08:53:23.305Z,101787.22
2023-05-01T08:56:26.688Z,101787.16
2023-05-01T08:59:32.581Z,101784.44
2023-05-01T09:02:37.104Z,101786.19
2023-05-01T09:05:40.403Z,101780.84
2023-05-01T09:08:43.226Z,101777.31
2023-05-01T09:11:46.183Z,101763.09
2023-05-01T09:14:51.003Z,101762.25
2023-05-01T09:17:54.457Z,101750.72
2023-05-01T09:20:57.873Z,101753.47
2023-05-01T09:24:01.740Z,101740.16
2023-05-01T09:27:04.580Z,101743.75
2023-05-01T09:30:10.116Z,101742.00
2023-05-01T09:33:14.259Z,101738.47
2023-05-01T09:36:18.600Z,101734.06
2023-05-01T09:39:24.210Z,101724.38
2023-05-01T09:42:26.940Z,101717.34
2023-05-01T09:45:31.175Z,101712.00
2023-05-01T09:48:36.030Z,101720.00
2023-05-01T09:51:39.570Z,101706.69
2023-05-01T09:54:42.559Z,101695.06
2023-05-01T09:57:47.730Z,101693.28
2023-05-01T10:00:52.099Z,101693.28
2023-05-01T10:03:56.851Z,101694.16
2023-05-01T10:07:00.179Z,101685.22
2023-05-01T10:10:19.562Z,101685.22
2023-05-01T10:13:22.315Z,101674.50
2023-05-01T10:16:35.334Z,101671.81
2023-05-01T10:19:38.117Z,101665.53
2023-05-01T10:22:41.720Z,101676.19
2023-05-01T10:25:45.975Z,101669.06
2023-05-01T10:28:50.265Z,101651.28
2023-05-01T10:31:54.544Z,101655.69
2023-05-01T10:35:01.512Z,101650.41
2023-05-01T10:38:07.704Z,101648.63
2023-05-01T10:41:10.705Z,101631.75
2023-05-01T10:44:24.040Z,101637.09
2023-05-01T10:47:46.627Z,101621.97
2023-05-01T10:51:08.450Z,101620.22
2023-05-01T10:54:25.688Z,101608.75
2023-05-01T10:57:44.226Z,101612.38
2023-05-01T11:01:25.716Z,101599.13
2023-05-01T11:04:51.417Z,101593.88
2023-05-01T11:08:28.339Z,101590.41
2023-05-01T11:11:50.257Z,101585.97
2023-05-01T11:15:08.184Z,101572.72
2023-05-01T11:18:12.143Z,101581.63
2023-05-01T11:21:17.488Z,101571.03
2023-05-01T11:24:20.648Z,101564.84
2023-05-01T11:27:23.731Z,101558.66
2023-05-01T11:30:26.945Z,101559.56
2023-05-01T11:33:30.045Z,101553.38
2023-05-01T11:36:48.918Z,101530.34
2023-05-01T11:39:52.617Z,101529.38
2023-05-01T11:43:02.388Z,101519.59
2023-05-01T11:46:05.332Z,101516.03
2023-05-01T11:49:08.498Z,101523.06
2023-05-01T11:52:13.316Z,101515.03
2023-05-01T11:55:17.374Z,101508.72
2023-05-01T11:58:32.200Z,101505.06
2023-05-01T12:01:36.008Z,101498.81
2023-05-01T12:04:38.883Z,101492.47
2023-05-01T12:07:43.284Z,101484.47
2023-05-01T12:10:48.152Z,101485.53
2023-05-01T12:13:51.214Z,101478.72
2023-05-01T12:16:54.228Z,101483.28
2023-05-01T12:19:57.898Z,101480.63
2023-05-01T12:23:04.924Z,101468.09
2023-05-01T12:26:17.636Z,101483.19
2023-05-01T12:29:20.363Z,101476.00
2023-05-01T12:32:32.351Z,101462.59
2023-05-01T12:35:35.494Z,101470.56
2023-05-01T12:38:39.864Z,101458.97
2023-05-01T12:41:44.393Z,101456.28
2023-05-01T12:44:47.479Z,101442.06
2023-05-01T12:47:50.361Z,101434.06
2023-05-01T12:50:55.334Z,101443.78
2023-05-01T12:53:59.631Z,101440.19
2023-05-01T12:57:09.847Z,101438.34
2023-05-01T13:00:13.946Z,101425.94
2023-05-01T13:03:19.931Z,101420.53
2023-05-01T13:06:23.231Z,101428.47
2023-05-01T13:09:30.787Z,101410.75
2023-05-01T13:12:34.159Z,101414.22
2023-05-01T13:15:37.493Z,101406.22
2023-05-01T13:18:47.344Z,101417.75
2023-05-01T13:21:50.728Z,101406.22
2023-05-01T13:24:54.917Z,101402.63
2023-05-01T13:27:57.721Z,101395.56
2023-05-01T13:31:00.792Z,101392.88
2023-05-01T13:34:05.687Z,101391.97
2023-05-01T13:37:12.376Z,101391.97
2023-05-01T13:40:17.219Z,101388.38
2023-05-01T13:43:22.258Z,101391.03
2023-05-01T13:46:27.369Z,101387.44
2023-05-01T13:49:30.210Z,101380.31
2023-05-01T13:52:33.351Z,101381.16
2023-05-01T13:55:40.951Z,101375.84
2023-05-01T13:58:43.766Z,101369.59
2023-05-01T14:01:47.830Z,101372.25
2023-05-01T14:04:50.783Z,101364.28
2023-05-01T14:07:56.832Z,101359.84
2023-05-01T14:11:01.357Z,101364.34
2023-05-01T14:14:05.024Z,101346.50
2023-05-01T14:17:08.022Z,101343.81
2023-05-01T14:20:11.276Z,101342.00
2023-05-01T14:23:16.719Z,101331.34
2023-05-01T14:26:22.104Z,101318.97
2023-05-01T14:29:28.040Z,101327.75
2023-05-01T14:32:33.403Z,101326.00
2023-05-01T14:35:37.052Z,101327.50
2023-05-01T14:38:41.527Z,101321.28
2023-05-01T14:41:45.742Z,101316.84
2023-05-01T14:44:48.512Z,101306.97
2023-05-01T14:47:51.399Z,101310.44
2023-05-01T14:50:55.174Z,101307.78
2023-05-01T14:53:58.125Z,101308.66
2023-05-01T14:57:06.258Z,101298.84
2023-05-01T15:00:10.642Z,101302.38
2023-05-01T15:03:13.532Z,101297.97
2023-05-01T15:06:17.122Z,101291.69
2023-05-01T15:09:20.158Z,101297.03
2023-05-01T15:12:24.269Z,101293.53
2023-05-01T15:15:27.541Z,101292.66
2023-05-01T15:18:30.404Z,101291.78
2023-05-01T15:21:33.253Z,101290.91
2023-05-01T15:24:36.101Z,101286.44
2023-05-01T15:27:40.273Z,101291.78
2023-05-01T15:30:45.852Z,101285.53
2023-05-01T15:34:13.616Z,101280.19
2023-05-01T15:37:17.042Z,101282.88
2023-05-01T15:40:20.344Z,101282.88
2023-05-01T15:43:24.471Z,101280.13
2023-05-01T15:46:27.970Z,101284.56
2023-05-01T15:49:31.153Z,101273.00
2023-05-01T15:52:34.108Z,101275.66
2023-05-01T15:55:36.933Z,101273.88
2023-05-01T15:58:41.184Z,101271.19
2023-05-01T16:01:44.074Z,101262.34
2023-05-01T16:04:47.776Z,101260.53
2023-05-01T16:07:55.793Z,101258.72
2023-05-01T16:10:58.703Z,101259.66
2023-05-01T16:14:02.882Z,101254.34
2023-05-01T16:17:06.629Z,101248.13
2023-05-01T16:20:12.100Z,101257.91
2023-05-01T16:23:16.307Z,101263.25
2023-05-01T16:26:23.052Z,101270.31
2023-05-01T16:29:27.269Z,101258.72
2023-05-01T16:32:30.075Z,101272.03
2023-05-01T16:35:32.981Z,101261.38
2023-05-01T16:38:35.851Z,101259.59
2023-05-01T16:41:44.449Z,101256.06
2023-05-01T16:44:48.587Z,101246.34
2023-05-01T16:47:51.618Z,101250.72
2023-05-01T16:50:54.523Z,101248.06
2023-05-01T16:53:57.280Z,101245.38
2023-05-01T16:57:00.169Z,101245.38
2023-05-01T17:00:05.597Z,101245.38
2023-05-01T17:03:08.454Z,101242.69
2023-05-01T17:06:11.240Z,101244.41
2023-05-01T17:09:14.265Z,101243.53
2023-05-01T17:12:30.035Z,101245.25
2023-05-01T17:15:34.364Z,101243.47
2023-05-01T17:18:37.507Z,101241.72
2023-05-01T17:21:40.412Z,101239.94
2023-05-01T17:24:43.210Z,101248.84
2023-05-01T17:27:45.988Z,101249.72
2023-05-01T17:30:50.125Z,101243.53
2023-05-01T17:33:52.888Z,101235.53
2023-05-01T17:36:57.827Z,101235.53
2023-05-01T17:40:01.074Z,101248.84
2023-05-01T17:43:04.342Z,101245.25
2023-05-01T17:46:08.950Z,101243.53
2023-05-01T17:49:11.782Z,101239.94
2023-05-01T17:52:14.529Z,101239.06
2023-05-01T17:55:18.381Z,101231.94
2023-05-01T17:58:21.585Z,101242.59
2023-05-01T18:01:25.779Z,101237.28
2023-05-01T18:04:28.805Z,101236.31
2023-05-01T18:07:31.571Z,101231.94
2023-05-01T18:10:34.339Z,101231.06
2023-05-01T18:13:39.768Z,101233.72
2023-05-01T18:16:44.132Z,101232.84
2023-05-01T18:19:46.938Z,101230.19
2023-05-01T18:22:49.988Z,101237.34
2023-05-01T18:25:52.743Z,101240.84
2023-05-01T18:28:55.517Z,101236.41
2023-05-01T18:32:00.232Z,101230.16
2023-05-01T18:35:03.762Z,101223.94
2023-05-01T18:38:06.688Z,101224.81
2023-05-01T18:41:09.422Z,101221.28
2023-05-01T18:44:12.216Z,101217.72
2023-05-01T18:47:16.316Z,101225.81
2023-05-01T18:50:21.742Z,101225.72
2023-05-01T18:53:24.673Z,101229.34
2023-05-01T18:56:27.711Z,101228.47
2023-05-01T18:59:32.175Z,101232.84
2023-05-01T19:02:36.693Z,101243.53
2023-05-01T19:05:41.407Z,101232.00
2023-05-01T19:08:44.363Z,101239.06
2023-05-01T19:11:48.147Z,101234.59
2023-05-01T19:14:50.864Z,101242.59
2023-05-01T19:17:54.948Z,101233.81
2023-05-01T19:20:57.752Z,101234.72
2023-05-01T19:24:00.548Z,101235.53
2023-05-01T19:27:04.018Z,101233.81
2023-05-01T19:30:08.265Z,101234.69
2023-05-01T19:33:12.482Z,101239.13
2023-05-01T19:36:15.387Z,101239.06
2023-05-01T19:39:18.208Z,101238.19
2023-05-01T19:42:21.103Z,101238.19
2023-05-01T19:45:23.885Z,101233.66
2023-05-01T19:48:28.085Z,101238.94
2023-05-01T19:51:31.459Z,101238.88
2023-05-01T19:54:34.339Z,101230.88
2023-05-01T19:57:37.140Z,101230.88
2023-05-01T20:00:39.947Z,101220.19
2023-05-01T20:03:44.130Z,101234.41
2023-05-01T20:06:47.197Z,101232.53
2023-05-01T20:09:50.232Z,101236.09
2023-05-01T20:12:53.644Z,101235.19
2023-05-01T20:15:56.397Z,101224.53
2023-05-01T20:19:00.522Z,101236.09
2023-05-01T20:22:03.310Z,101232.53
2023-05-01T20:25:09.398Z,101236.94
2023-05-01T20:28:14.752Z,101228.03
2023-05-01T20:31:17.796Z,101232.41
2023-05-01T20:34:25.044Z,101234.16
2023-05-01T20:37:27.820Z,101230.63
2023-05-01T20:40:30.618Z,101227.09
2023-05-01T20:43:33.373Z,101228.03
2023-05-01T20:46:36.382Z,101235.16
2023-05-01T20:49:40.500Z,101227.16
2023-05-01T20:52:43.217Z,101232.50
2023-05-01T20:55:46.040Z,101232.50
2023-05-01T20:58:48.890Z,101237.81
2023-05-01T21:01:51.669Z,101233.44
2023-05-01T21:04:56.382Z,101234.31
2023-05-01T21:07:59.047Z,101236.03
2023-05-01T21:11:02.203Z,101238.69
2023-05-01T21:14:04.914Z,101231.63
2023-05-01T21:17:08.417Z,101229.00
2023-05-01T21:20:16.954Z,101231.75
2023-05-01T21:23:19.683Z,101234.53
2023-05-01T21:26:22.548Z,101233.66
2023-05-01T21:29:25.359Z,101229.28
2023-05-01T21:32:32.430Z,101232.72
2023-05-01T21:35:36.672Z,101236.19
2023-05-01T21:38:40.048Z,101242.31
2023-05-01T21:41:43.050Z,101243.19
2023-05-01T21:44:45.831Z,101239.56
2023-05-01T21:47:50.663Z,101237.75
2023-05-01T21:50:54.865Z,101231.50
2023-05-01T21:53:57.591Z,101235.03
2023-05-01T21:57:00.607Z,101239.56
2023-05-01T22:00:04.717Z,101237.00
2023-05-01T22:03:10.978Z,101247.13
2023-05-01T22:06:15.158Z,101239.13
2023-05-01T22:09:17.905Z,101240.81
2023-05-01T22:12:20.707Z,101241.88
2023-05-01T22:15:23.495Z,101241.72
2023-05-01T22:18:26.945Z,101244.28
2023-05-01T22:21:31.873Z,101240.66
2023-05-01T22:24:36.093Z,101251.25
2023-05-01T22:27:39.450Z,101235.47
2023-05-01T22:30:44.235Z,101243.59
2023-05-01T22:33:47.879Z,101249.00
2023-05-01T22:36:51.988Z,101237.47
2023-05-01T22:39:54.995Z,101245.53
2023-05-01T22:42:57.753Z,101241.00
2023-05-01T22:46:00.643Z,101239.25
2023-05-01T22:49:04.277Z,101233.88
2023-05-01T22:52:08.434Z,101245.38
2023-05-01T22:55:11.878Z,101232.13
2023-05-01T22:58:14.605Z,101242.91
2023-05-01T23:01:17.394Z,101240.22
2023-05-01T23:04:20.202Z,101249.91
2023-05-01T23:07:24.479Z,101248.13
2023-05-01T23:10:28.586Z,101237.53
2023-05-01T23:13:32.283Z,101249.91
2023-05-01T23:16:41.348Z,101248.22
2023-05-01T23:19:44.425Z,101248.22
2023-05-01T23:22:49.136Z,101244.66
2023-05-01T23:25:51.955Z,101250.88
2023-05-01T23:28:54.868Z,101247.25
2023-05-01T23:31:57.836Z,101241.94
2023-05-01T23:35:03.629Z,101239.25
2023-05-01T23:38:07.771Z,101243.78
2023-05-01T23:41:10.919Z,101236.59
2023-05-01T23:44:13.686Z,101243.78
2023-05-01T23:47:16.541Z,101240.25
2023-05-01T23:50:19.410Z,101239.41
2023-05-01T23:53:23.552Z,101244.78
2023-05-01T23:56:26.478Z,101242.91
2023-05-01T23:59:29.417Z,101238.47
